Time;durP1;ratioP1;P1;durP2;ratioP2;P2;SDS_P1;SDS_P2;PMS_P1;PMS_P2;Temp;Humidity;BMP_temperature;BMP_pressure;BME280_temperature;BME280_humidity;BME280_pressure;Samples;Min_cycle;Max_cycle;Signal;HPM_P1;HPM_P2
2021/09/09 00:00:18;;;;;;;11.90;9.23;;;;;;;15.10;100.00;100313.81;5133015;27;20596;-73
2021/09/09 00:02:43;;;;;;;10.63;9.63;;;;;;;15.15;100.00;100299.81;5133114;27;20176;-73
2021/09/09 00:05:10;;;;;;;10.27;9.37;;;;;;;15.16;100.00;100293.16;5132704;27;20842;-73
2021/09/09 00:07:36;;;;;;;9.93;9.03;;;;;;;15.15;100.00;100275.03;5132806;27;20226;-73
2021/09/09 00:10:02;;;;;;;9.53;8.63;;;;;;;15.00;100.00;100286.75;5132864;27;20177;-73
2021/09/09 00:12:28;;;;;;;9.77;8.90;;;;;;;14.93;100.00;100272.00;5132751;27;20690;-73
2021/09/09 00:14:53;;;;;;;9.73;8.80;;;;;;;14.87;100.00;100277.69;5132481;27;20192;-73
2021/09/09 00:17:19;;;;;;;9.70;8.70;;;;;;;14.74;100.00;100275.28;5132736;27;20173;-73
2021/09/09 00:19:44;;;;;;;10.40;9.07;;;;;;;14.63;100.00;100263.16;5132599;27;20659;-73
2021/09/09 00:22:10;;;;;;;10.20;9.30;;;;;;;14.55;100.00;100264.88;5132741;27;20874;-73
2021/09/09 00:24:35;;;;;;;10.50;9.63;;;;;;;14.49;100.00;100267.03;5132400;27;20529;-73
2021/09/09 00:27:01;;;;;;;10.70;9.73;;;;;;;14.42;100.00;100263.22;5132722;27;20172;-73
2021/09/09 00:29:26;;;;;;;10.43;9.43;;;;;;;14.39;100.00;100261.94;5114010;27;20554;-73
2021/09/09 00:31:51;;;;;;;10.27;9.27;;;;;;;14.36;100.00;100267.34;5132420;27;20200;-73
2021/09/09 00:34:17;;;;;;;10.63;9.63;;;;;;;14.25;100.00;100261.47;5132126;27;20172;-73
2021/09/09 00:36:42;;;;;;;10.50;9.50;;;;;;;14.21;100.00;100266.84;5132356;27;20180;-73
2021/09/09 00:39:07;;;;;;;10.97;9.97;;;;;;;14.25;100.00;100270.50;5132669;27;20221;-72
2021/09/09 00:41:33;;;;;;;10.57;9.57;;;;;;;14.28;100.00;100256.09;5132278;27;20620;-73
2021/09/09 00:43:59;;;;;;;10.43;9.53;;;;;;;14.30;100.00;100253.00;5132074;27;20176;-73
2021/09/09 00:46:25;;;;;;;9.37;8.47;;;;;;;14.16;100.00;100253.31;5131878;27;20502;-73
2021/09/09 00:48:51;;;;;;;12.47;9.00;;;;;;;14.09;100.00;100246.78;5132174;27;20176;-73
2021/09/09 00:51:16;;;;;;;10.60;9.70;;;;;;;14.04;100.00;100245.06;5132385;27;20223;-73
2021/09/09 00:53:42;;;;;;;11.67;10.67;;;;;;;14.00;100.00;100255.91;5131975;27;20647;-73
2021/09/09 00:56:08;;;;;;;12.00;10.90;;;;;;;13.96;100.00;100256.94;5131975;27;20539;-73
2021/09/09 00:58:35;;;;;;;12.77;10.90;;;;;;;14.04;100.00;100264.28;5131896;27;20176;-73
2021/09/09 01:01:01;;;;;;;12.10;10.77;;;;;;;14.17;100.00;100265.09;5112891;27;20271;-73
2021/09/09 01:03:26;;;;;;;11.90;10.80;;;;;;;14.27;100.00;100259.19;5131839;27;20268;-74
2021/09/09 01:05:51;;;;;;;12.33;10.73;;;;;;;14.26;100.00;100274.88;5131496;27;20213;-72
2021/09/09 01:08:17;;;;;;;11.83;10.63;;;;;;;14.25;100.00;100258.72;5131740;27;20180;-73
2021/09/09 01:10:42;;;;;;;10.50;9.60;;;;;;;14.24;100.00;100262.59;5131806;27;20180;-73
2021/09/09 01:13:10;;;;;;;11.40;10.20;;;;;;;14.07;100.00;100254.56;5131875;27;20632;-73
2021/09/09 01:15:43;;;;;;;16.93;11.10;;;;;;;13.88;100.00;100252.31;5131554;27;20169;-73
2021/09/09 01:18:13;;;;;;;12.57;11.27;;;;;;;13.88;100.00;100258.59;5131734;28;20247;-73
2021/09/09 01:20:40;;;;;;;12.90;11.63;;;;;;;13.97;100.00;100250.28;5131791;27;20165;-73
2021/09/09 01:23:07;;;;;;;12.43;11.37;;;;;;;14.10;100.00;100260.16;5131583;28;20185;-73
2021/09/09 01:25:33;;;;;;;14.40;11.40;;;;;;;14.17;100.00;100248.63;5131404;28;20177;-73
2021/09/09 01:27:58;;;;;;;12.07;10.87;;;;;;;14.20;100.00;100248.75;5131601;28;20165;-73
2021/09/09 01:30:24;;;;;;;12.30;10.97;;;;;;;14.20;100.00;100258.94;5131430;28;20530;-73
2021/09/09 01:32:49;;;;;;;12.00;10.93;;;;;;;14.17;100.00;100248.63;5131469;28;20207;-73
2021/09/09 01:35:14;;;;;;;12.27;11.17;;;;;;;14.35;100.00;100247.28;5131277;28;20296;-73
2021/09/09 01:37:40;;;;;;;14.80;11.73;;;;;;;14.48;100.00;100270.13;5131859;28;20161;-74
2021/09/09 01:40:06;;;;;;;12.17;11.13;;;;;;;14.20;100.00;100254.25;5131464;28;20753;-74
2021/09/09 01:42:31;;;;;;;15.20;12.57;;;;;;;14.12;100.00;100240.59;5131369;28;20314;-73
2021/09/09 01:44:57;;;;;;;13.27;11.73;;;;;;;14.26;100.00;100233.66;5131424;28;20624;-73
2021/09/09 01:47:23;;;;;;;13.00;11.80;;;;;;;14.20;100.00;100235.03;5131211;28;20624;-73
2021/09/09 01:49:48;;;;;;;11.70;10.60;;;;;;;14.20;100.00;100234.22;5131611;28;20168;-74
2021/09/09 01:52:14;;;;;;;12.20;11.03;;;;;;;14.33;100.00;100221.31;5131236;28;20192;-73
2021/09/09 01:54:39;;;;;;;12.27;11.17;;;;;;;14.40;100.00;100229.78;5131166;28;20213;-73
2021/09/09 01:57:04;;;;;;;12.33;11.23;;;;;;;14.58;100.00;100226.47;5131116;28;20259;-73
2021/09/09 01:59:30;;;;;;;12.20;11.10;;;;;;;14.38;100.00;100216.38;5131148;28;20276;-73
2021/09/09 02:01:55;;;;;;;12.00;10.90;;;;;;;14.23;100.00;100219.78;5131237;28;20176;-74
2021/09/09 02:04:21;;;;;;;11.70;10.60;;;;;;;14.46;100.00;100217.41;5130933;28;20712;-73
2021/09/09 02:06:46;;;;;;;11.90;10.90;;;;;;;14.57;100.00;100215.81;5112582;28;20172;-73
2021/09/09 02:09:11;;;;;;;12.00;10.77;;;;;;;14.66;100.00;100221.22;5131239;28;20647;-73
2021/09/09 02:11:37;;;;;;;10.53;9.60;;;;;;;14.67;100.00;100218.13;5133615;27;20632;-73
2021/09/09 02:14:02;;;;;;;11.93;10.57;;;;;;;14.45;100.00;100221.31;5135200;27;20165;-73
2021/09/09 02:16:28;;;;;;;11.20;10.20;;;;;;;14.45;100.00;100215.81;5134998;27;20619;-74
2021/09/09 02:18:55;;;;;;;10.67;9.57;;;;;;;14.46;100.00;100215.47;5134971;27;20168;-73
2021/09/09 02:21:21;;;;;;;10.97;9.97;;;;;;;14.40;100.00;100211.31;5134884;27;20185;-74
2021/09/09 02:23:47;;;;;;;11.03;10.03;;;;;;;13.78;100.00;100212.38;5134815;27;20165;-74
2021/09/09 02:26:12;;;;;;;11.73;10.70;;;;;;;13.74;100.00;100211.41;5135416;27;20173;-73
2021/09/09 02:28:38;;;;;;;11.90;10.77;;;;;;;13.72;100.00;100212.91;5134761;27;20255;-73
2021/09/09 02:31:03;;;;;;;11.87;10.80;;;;;;;13.63;100.00;100222.03;5135033;27;20200;-74
2021/09/09 02:33:28;;;;;;;11.03;10.07;;;;;;;13.53;100.00;100218.88;5134705;27;20309;-73
2021/09/09 02:35:54;;;;;;;11.73;10.63;;;;;;;13.43;100.00;100220.09;5134426;27;20200;-73
2021/09/09 02:38:19;;;;;;;11.70;10.70;;;;;;;13.34;100.00;100222.94;5116182;27;20263;-73
2021/09/09 02:40:44;;;;;;;11.33;10.40;;;;;;;13.52;100.00;100220.03;5134635;27;20256;-74
2021/09/09 02:43:10;;;;;;;12.07;11.00;;;;;;;13.67;100.00;100211.16;5134671;27;20646;-73
2021/09/09 02:45:35;;;;;;;11.30;10.30;;;;;;;13.73;100.00;100220.00;5134174;27;20678;-74
2021/09/09 02:48:02;;;;;;;11.03;10.00;;;;;;;13.73;100.00;100222.72;5134450;27;20366;-73
2021/09/09 02:50:28;;;;;;;12.17;10.33;;;;;;;13.75;100.00;100217.72;5134496;27;20224;-73
2021/09/09 02:52:54;;;;;;;11.23;10.23;;;;;;;13.75;100.00;100223.22;5134720;27;20196;-73
2021/09/09 02:55:19;;;;;;;10.20;9.23;;;;;;;13.79;100.00;100213.16;5134168;27;20644;-73
2021/09/09 02:57:44;;;;;;;12.33;9.73;;;;;;;13.85;100.00;100206.31;5134606;27;20176;-73
2021/09/09 03:00:10;;;;;;;10.80;9.80;;;;;;;13.80;100.00;100196.34;5137483;27;20192;-73
2021/09/09 03:02:36;;;;;;;11.87;9.80;;;;;;;13.90;100.00;100182.19;5140321;27;20172;-74
2021/09/09 03:05:02;;;;;;;10.90;10.00;;;;;;;13.94;100.00;100169.38;5116323;27;20184;-73
2021/09/09 03:07:27;;;;;;;9.70;8.80;;;;;;;13.99;100.00;100179.34;5134980;27;20237;-73
2021/09/09 03:09:52;;;;;;;10.60;9.50;;;;;;;13.98;100.00;100172.22;5134311;27;20226;-74
2021/09/09 03:12:18;;;;;;;11.67;10.57;;;;;;;13.51;100.00;100171.78;5134354;27;20608;-74
2021/09/09 03:14:43;;;;;;;16.03;10.03;;;;;;;13.63;100.00;100174.56;5133892;27;20183;-74
2021/09/09 03:17:10;;;;;;;13.00;11.33;;;;;;;13.72;100.00;100172.50;5134164;27;20227;-74
2021/09/09 03:19:36;;;;;;;10.30;9.30;;;;;;;13.79;100.00;100167.28;5133719;27;20173;-73
2021/09/09 03:22:01;;;;;;;9.77;8.90;;;;;;;13.90;100.00;100162.16;5133094;27;20394;-74
2021/09/09 03:24:26;;;;;;;10.20;9.30;;;;;;;13.90;100.00;100162.16;5133550;27;20251;-73
2021/09/09 03:26:52;;;;;;;9.17;8.27;;;;;;;13.82;100.00;100163.06;5133548;27;20517;-73
2021/09/09 03:29:17;;;;;;;9.73;8.93;;;;;;;13.66;100.00;100160.94;5133497;27;20181;-73
2021/09/09 03:31:43;;;;;;;13.33;8.70;;;;;;;13.52;100.00;100156.91;5133369;27;20242;-73
2021/09/09 03:34:08;;;;;;;10.30;9.40;;;;;;;13.57;100.00;100159.44;5133133;27;20182;-73
2021/09/09 03:36:33;;;;;;;10.80;9.80;;;;;;;13.40;100.00;100150.22;5133326;27;20227;-73
2021/09/09 03:38:59;;;;;;;10.00;8.83;;;;;;;13.25;100.00;100159.09;5133548;27;20168;-73
2021/09/09 03:41:24;;;;;;;9.77;8.87;;;;;;;13.40;100.00;100149.44;5133525;27;20184;-73
2021/09/09 03:43:49;;;;;;;10.23;9.23;;;;;;;13.42;100.00;100144.41;5133118;27;20647;-73
2021/09/09 03:46:15;;;;;;;9.33;8.43;;;;;;;13.44;100.00;100144.06;5133420;27;20180;-74
2021/09/09 03:48:40;;;;;;;9.27;8.50;;;;;;;13.44;100.00;100155.84;5132777;27;20264;-73
2021/09/09 03:51:06;;;;;;;9.13;8.33;;;;;;;13.38;100.00;100140.72;5132966;27;20172;-73
2021/09/09 03:53:31;;;;;;;9.17;8.37;;;;;;;13.29;100.00;100137.25;5133059;27;20186;-73
2021/09/09 03:55:56;;;;;;;8.60;7.77;;;;;;;13.25;100.00;100136.34;5132766;27;20169;-73
2021/09/09 03:58:22;;;;;;;13.30;9.37;;;;;;;13.21;100.00;100136.22;5132943;27;20696;-73
2021/09/09 04:00:47;;;;;;;8.93;8.13;;;;;;;13.16;100.00;100138.31;5133176;27;20616;-73
2021/09/09 04:03:12;;;;;;;9.63;8.80;;;;;;;13.08;100.00;100149.03;5133141;27;21026;-74
2021/09/09 04:05:38;;;;;;;10.27;9.30;;;;;;;13.20;100.00;100133.81;5132460;27;20221;-74
2021/09/09 04:08:03;;;;;;;9.70;8.80;;;;;;;13.22;100.00;100139.75;5132989;27;20172;-74
2021/09/09 04:10:29;;;;;;;10.50;9.47;;;;;;;13.11;100.00;100118.19;5132720;27;20566;-73
2021/09/09 04:12:54;;;;;;;11.13;10.13;;;;;;;13.00;100.00;100127.94;5132473;27;20208;-74
2021/09/09 04:15:20;;;;;;;9.67;8.77;;;;;;;13.22;100.00;100137.00;5132640;27;20252;-74
2021/09/09 04:17:45;;;;;;;10.93;9.33;;;;;;;13.35;100.00;100133.97;5113949;27;20180;-73
2021/09/09 04:20:11;;;;;;;9.20;8.40;;;;;;;13.36;100.00;100143.00;5114051;27;20186;-73
2021/09/09 04:22:37;;;;;;;9.50;8.53;;;;;;;13.05;100.00;100118.75;5132598;27;20169;-73
2021/09/09 04:25:04;;;;;;;10.27;9.27;;;;;;;12.68;100.00;100129.50;5132233;27;20574;-73
2021/09/09 04:27:31;;;;;;;10.27;9.27;;;;;;;12.84;100.00;100124.22;5132907;27;20186;-73
2021/09/09 04:29:57;;;;;;;9.63;8.77;;;;;;;12.99;100.00;100123.59;5132226;27;20569;-72
2021/09/09 04:32:22;;;;;;;15.23;9.90;;;;;;;12.92;100.00;100120.63;5132279;27;20215;-73
2021/09/09 04:34:48;;;;;;;10.17;9.23;;;;;;;13.04;100.00;100115.19;5112577;27;20172;-74
2021/09/09 04:37:13;;;;;;;9.60;8.77;;;;;;;13.08;100.00;100115.31;5132159;27;20216;-73
2021/09/09 04:39:39;;;;;;;9.60;8.47;;;;;;;12.95;100.00;100117.19;5132304;27;20536;-72
2021/09/09 04:42:04;;;;;;;10.87;9.63;;;;;;;12.89;100.00;100117.75;5132084;27;20180;-72
2021/09/09 04:44:30;;;;;;;9.73;8.83;;;;;;;12.79;100.00;100127.16;5113574;27;20240;-75
2021/09/09 04:46:55;;;;;;;12.03;9.93;;;;;;;12.80;100.00;100126.03;5131405;27;20177;-73
2021/09/09 04:49:20;;;;;;;10.87;9.77;;;;;;;12.63;100.00;100126.16;5131871;27;20538;-72
2021/09/09 04:51:46;;;;;;;11.33;10.30;;;;;;;12.54;100.00;100123.47;5113412;27;20200;-73
2021/09/09 04:54:11;;;;;;;11.13;10.13;;;;;;;12.47;100.00;100131.41;5131606;27;20688;-73
2021/09/09 04:56:36;;;;;;;11.23;10.23;;;;;;;12.58;100.00;100112.63;5131944;27;20191;-74
2021/09/09 04:59:02;;;;;;;12.03;10.80;;;;;;;12.81;100.00;100124.88;5131858;27;20642;-76
2021/09/09 05:01:27;;;;;;;12.30;11.03;;;;;;;12.98;100.00;100121.19;5131773;27;20256;-72
2021/09/09 05:03:53;;;;;;;11.17;9.97;;;;;;;13.08;100.00;100109.84;5131654;27;20183;-71
2021/09/09 05:06:18;;;;;;;11.47;10.37;;;;;;;13.06;100.00;100123.09;5131994;27;20172;-73
2021/09/09 05:08:44;;;;;;;9.87;8.97;;;;;;;12.97;100.00;100112.16;5131616;27;20176;-72
2021/09/09 05:11:10;;;;;;;11.27;10.27;;;;;;;12.97;100.00;100105.88;5131588;27;20183;-72
2021/09/09 05:13:36;;;;;;;10.60;9.60;;;;;;;12.86;100.00;100107.44;5131229;27;20180;-72
2021/09/09 05:16:01;;;;;;;10.80;9.80;;;;;;;12.91;100.00;100116.28;5131291;27;20172;-75
2021/09/09 05:18:27;;;;;;;11.17;9.97;;;;;;;13.06;100.00;100110.16;5131541;27;20176;-75
2021/09/09 05:20:52;;;;;;;12.07;10.87;;;;;;;13.15;100.00;100103.78;5131550;27;20210;-73
2021/09/09 05:23:17;;;;;;;10.87;9.87;;;;;;;13.26;100.00;100100.31;5131799;27;20183;-75
2021/09/09 05:25:43;;;;;;;11.23;10.13;;;;;;;13.32;100.00;100093.50;5131221;28;20251;-71
2021/09/09 05:28:08;;;;;;;12.83;9.97;;;;;;;13.35;100.00;100089.28;5131131;28;20525;-73
2021/09/09 05:30:34;;;;;;;10.87;9.97;;;;;;;13.08;100.00;100093.38;5131337;28;20168;-74
2021/09/09 05:32:59;;;;;;;11.17;10.07;;;;;;;13.12;100.00;100091.56;5131358;28;20195;-74
2021/09/09 05:35:24;;;;;;;10.90;9.90;;;;;;;13.29;100.00;100109.81;5131041;28;20196;-74
2021/09/09 05:37:50;;;;;;;10.77;9.67;;;;;;;13.24;100.00;100101.81;5131455;28;20164;-74
2021/09/09 05:40:15;;;;;;;11.07;10.07;;;;;;;13.15;100.00;100093.63;5131264;28;20246;-74
2021/09/09 05:42:40;;;;;;;12.13;10.93;;;;;;;13.08;100.00;100091.44;5131174;28;20172;-74
2021/09/09 05:45:06;;;;;;;12.27;10.67;;;;;;;13.14;100.00;100113.97;5131222;27;20165;-75
2021/09/09 05:47:32;;;;;;;12.60;11.30;;;;;;;13.31;100.00;100110.31;5135193;27;20169;-75
2021/09/09 05:49:57;;;;;;;10.97;9.97;;;;;;;13.41;100.00;100112.59;5135536;27;20704;-75
2021/09/09 05:52:23;;;;;;;11.80;10.70;;;;;;;13.52;100.00;100113.78;5133483;27;20200;-74
2021/09/09 05:54:48;;;;;;;11.40;9.83;;;;;;;13.63;100.00;100105.94;5132252;27;20181;-74
2021/09/09 05:57:13;;;;;;;12.27;10.97;;;;;;;13.73;100.00;100107.41;5135625;27;20229;-74
2021/09/09 05:59:38;;;;;;;12.17;11.07;;;;;;;13.84;100.00;100105.84;5135799;27;20225;-75
2021/09/09 06:02:13;;;;;;;11.63;10.63;;;;;;;13.92;100.00;100104.94;5135643;27;20184;-74
2021/09/09 06:04:38;;;;;;;10.80;9.80;;;;;;;13.89;100.00;100111.94;5135214;27;20191;-74
2021/09/09 06:07:04;;;;;;;11.37;10.37;;;;;;;13.92;100.00;100104.94;5135280;27;20165;-73
2021/09/09 06:09:29;;;;;;;10.83;9.87;;;;;;;13.97;100.00;100099.22;5135348;27;20259;-75
2021/09/09 06:11:54;;;;;;;12.23;11.03;;;;;;;13.95;100.00;100090.53;5135120;27;20287;-74
2021/09/09 06:14:20;;;;;;;12.27;10.43;;;;;;;14.02;100.00;100095.44;5135113;27;20582;-74
2021/09/09 06:16:45;;;;;;;13.73;11.43;;;;;;;14.11;100.00;100105.19;5135303;27;20255;-74
2021/09/09 06:19:10;;;;;;;13.73;9.63;;;;;;;14.17;100.00;100105.75;5135342;27;20177;-75
2021/09/09 06:21:36;;;;;;;11.13;10.13;;;;;;;14.24;100.00;100101.28;5135155;27;20172;-75
2021/09/09 06:24:01;;;;;;;11.70;10.60;;;;;;;14.36;100.00;100108.72;5134871;27;20195;-74
2021/09/09 06:26:26;;;;;;;10.73;9.77;;;;;;;14.49;100.00;100101.31;5135081;27;20173;-75
2021/09/09 06:28:52;;;;;;;12.00;9.67;;;;;;;14.59;100.00;100095.31;5135327;27;20173;-74
2021/09/09 06:31:17;;;;;;;11.33;10.20;;;;;;;14.63;100.00;100095.44;5116122;27;20253;-75
2021/09/09 06:33:43;;;;;;;12.13;10.93;;;;;;;14.73;100.00;100098.47;5131316;27;20180;-74
2021/09/09 06:36:08;;;;;;;11.20;9.70;;;;;;;14.85;100.00;100097.66;5133194;27;20172;-74
2021/09/09 06:38:33;;;;;;;11.33;10.23;;;;;;;14.97;100.00;100096.81;5134710;27;20176;-74
2021/09/09 06:40:59;;;;;;;10.83;9.83;;;;;;;15.23;100.00;100091.69;5133450;27;20530;-74
2021/09/09 06:43:24;;;;;;;10.70;9.60;;;;;;;15.34;100.00;100098.28;5134510;27;20216;-75
2021/09/09 06:45:49;;;;;;;13.90;9.90;;;;;;;15.35;100.00;100099.09;5134588;27;20172;-77
2021/09/09 06:48:15;;;;;;;10.20;9.30;;;;;;;15.42;100.00;100100.06;5134196;27;20620;-77
2021/09/09 06:50:41;;;;;;;9.77;8.87;;;;;;;15.47;100.00;100094.28;5134281;27;20171;-74
2021/09/09 06:53:06;;;;;;;9.43;8.53;;;;;;;15.50;100.00;100094.75;5133643;27;20632;-76
2021/09/09 06:55:32;;;;;;;9.83;8.93;;;;;;;15.48;100.00;100087.66;5134155;27;20288;-77
2021/09/09 06:57:58;;;;;;;9.47;8.63;;;;;;;15.50;100.00;100084.53;5133162;27;20172;-77
2021/09/09 07:00:24;;;;;;;10.33;9.17;;;;;;;15.61;100.00;100093.09;5134413;27;20696;-73
2021/09/09 07:02:49;;;;;;;8.40;7.70;;;;;;;15.69;100.00;100097.66;5134183;27;20544;-73
2021/09/09 07:05:15;;;;;;;8.17;7.37;;;;;;;15.81;100.00;100094.81;5134052;27;20195;-72
2021/09/09 07:07:40;;;;;;;8.67;7.87;;;;;;;15.94;100.00;100095.53;5134185;27;20574;-72
2021/09/09 07:10:07;;;;;;;7.67;7.00;;;;;;;16.08;100.00;100095.09;5134144;27;20264;-73
2021/09/09 07:12:33;;;;;;;10.20;6.67;;;;;;;16.18;100.00;100092.56;5133831;27;20207;-73
2021/09/09 07:14:58;;;;;;;8.27;6.77;;;;;;;16.27;100.00;100093.19;5115282;27;20176;-73
2021/09/09 07:17:23;;;;;;;8.07;7.37;;;;;;;16.41;100.00;100089.16;5134061;27;20215;-73
2021/09/09 07:19:49;;;;;;;7.83;7.23;;;;;;;16.54;100.00;100094.19;5133898;27;20595;-73
2021/09/09 07:22:14;;;;;;;8.23;7.57;;;;;;;16.65;100.00;100086.16;5133904;27;20527;-73
2021/09/09 07:24:39;;;;;;;8.13;7.43;;;;;;;16.81;100.00;100086.94;5133598;27;20168;-72
2021/09/09 07:27:05;;;;;;;8.90;7.37;;;;;;;17.01;100.00;100090.50;5133904;27;20655;-73
2021/09/09 07:29:30;;;;;;;9.63;8.33;;;;;;;17.16;100.00;100084.09;5133610;27;20186;-73
2021/09/09 07:31:55;;;;;;;9.20;8.20;;;;;;;17.15;100.00;100081.69;5133564;27;20199;-73
2021/09/09 07:34:21;;;;;;;9.70;8.90;;;;;;;17.25;100.00;100087.44;5133433;27;20183;-72
2021/09/09 07:36:46;;;;;;;9.47;8.67;;;;;;;17.38;100.00;100092.81;5133432;27;20176;-72
2021/09/09 07:39:11;;;;;;;10.23;9.33;;;;;;;17.46;100.00;100094.50;5133579;27;20176;-72
2021/09/09 07:41:37;;;;;;;8.90;8.00;;;;;;;17.53;100.00;100091.91;5133569;27;20207;-73
2021/09/09 07:44:02;;;;;;;15.07;8.87;;;;;;;17.65;100.00;100090.91;5133254;27;20187;-73
2021/09/09 07:46:29;;;;;;;8.60;7.40;;;;;;;17.82;100.00;100094.03;5132979;27;20574;-73
2021/09/09 07:48:55;;;;;;;8.50;7.47;;;;;;;17.87;100.00;100097.66;5133482;27;20651;-72
2021/09/09 07:51:22;;;;;;;8.93;7.60;;;;;;;18.02;100.00;100089.22;5114759;27;20231;-72
2021/09/09 07:53:48;;;;;;;10.23;7.33;;;;;;;18.13;100.00;100089.41;5114723;27;20183;-72
2021/09/09 07:56:13;;;;;;;9.47;8.70;;;;;;;18.35;100.00;100091.31;5133111;27;20169;-72
2021/09/09 07:58:39;;;;;;;8.43;7.73;;;;;;;18.37;100.00;100177.50;5133259;27;20173;-71
2021/09/09 08:01:04;;;;;;;8.33;7.63;;;;;;;18.47;97.00;100114.41;5132977;27;20165;-72
2021/09/09 08:03:30;;;;;;;7.50;6.90;;;;;;;18.52;98.24;100094.72;5132981;27;20537;-72
2021/09/09 08:05:55;;;;;;;8.60;7.80;;;;;;;18.57;98.05;100097.97;5130658;27;20192;-72
2021/09/09 08:08:21;;;;;;;7.17;6.57;;;;;;;18.74;97.26;100091.09;5132745;27;20708;-72
2021/09/09 08:10:46;;;;;;;7.53;6.87;;;;;;;18.84;93.27;100097.97;5132836;27;20727;-74
2021/09/09 08:13:11;;;;;;;8.77;7.97;;;;;;;18.93;93.04;100085.41;5114172;27;20212;-74
2021/09/09 08:15:38;;;;;;;10.07;7.63;;;;;;;19.02;93.60;100087.91;5132018;27;20731;-74
2021/09/09 08:18:04;;;;;;;8.07;7.27;;;;;;;19.15;91.81;100088.47;5132684;27;20266;-74
2021/09/09 08:20:29;;;;;;;10.40;7.03;;;;;;;19.28;91.50;100087.81;5132442;27;20184;-74
2021/09/09 08:22:55;;;;;;;8.87;8.03;;;;;;;19.35;89.83;100092.63;5132452;27;20532;-74
2021/09/09 08:25:20;;;;;;;7.00;6.33;;;;;;;19.57;87.95;100111.13;5132407;27;20169;-74
2021/09/09 08:27:46;;;;;;;7.67;6.97;;;;;;;19.71;87.21;100107.69;5132397;27;20230;-74
2021/09/09 08:30:12;;;;;;;8.20;7.50;;;;;;;19.78;nan;100096.66;5131995;27;20242;-74
2021/09/09 08:32:37;;;;;;;8.10;6.77;;;;;;;19.86;88.94;100080.91;5132053;27;20648;-74
2021/09/09 08:35:03;;;;;;;8.23;7.47;;;;;;;19.91;86.82;100080.53;5131839;27;20186;-74
2021/09/09 08:37:28;;;;;;;8.43;7.20;;;;;;;19.99;84.61;100076.66;5113950;27;20626;-74
2021/09/09 08:39:54;;;;;;;7.40;6.70;;;;;;;20.08;84.28;100070.75;5132077;27;20268;-74
2021/09/09 08:42:19;;;;;;;7.50;5.73;;;;;;;20.20;86.64;100068.47;5131933;27;20492;-74
2021/09/09 08:44:46;;;;;;;6.80;6.23;;;;;;;20.48;86.97;100075.44;5131642;27;20225;-74
2021/09/09 08:47:12;;;;;;;6.63;6.03;;;;;;;20.45;85.07;100070.66;5131552;27;20573;-74
2021/09/09 08:49:37;;;;;;;7.00;6.40;;;;;;;20.60;84.21;100077.09;5131834;27;20203;-74
2021/09/09 08:52:04;;;;;;;6.67;6.17;;;;;;;20.72;83.61;100071.22;5131745;27;20232;-74
2021/09/09 08:54:33;;;;;;;6.90;6.30;;;;;;;20.80;82.82;100073.63;5131483;27;20212;-74
2021/09/09 08:56:58;;;;;;;6.00;5.50;;;;;;;20.93;81.33;100068.53;5131792;27;20173;-75
2021/09/09 08:59:24;;;;;;;6.47;5.87;;;;;;;21.06;80.33;100071.75;5113425;27;20192;-74
2021/09/09 09:02:00;;;;;;;6.10;5.60;;;;;;;21.31;76.56;100067.09;5131661;27;20173;-74
2021/09/09 09:04:25;;;;;;;6.17;5.67;;;;;;;21.41;76.80;100076.66;5131281;27;20204;-74
2021/09/09 09:06:51;;;;;;;9.47;4.60;;;;;;;21.64;74.90;100068.75;5131607;27;20192;-74
2021/09/09 09:09:20;;;;;;;6.40;5.90;;;;;;;21.72;76.64;100063.19;5131915;27;20571;-75
2021/09/09 09:11:49;;;;;;;5.70;5.23;;;;;;;21.74;76.93;100083.06;5131705;27;20231;-74
2021/09/09 09:14:18;;;;;;;6.40;5.80;;;;;;;21.79;75.41;100063.19;5131374;27;20232;-74
2021/09/09 09:17:11;;;;;;;6.17;5.67;;;;;;;21.87;75.16;100059.22;5131405;27;20167;-74
2021/09/09 09:19:41;;;;;;;5.97;5.47;;;;;;;21.97;73.64;100055.63;5126978;27;20717;-74
2021/09/09 09:22:11;;;;;;;5.57;5.17;;;;;;;22.02;72.82;100055.25;5112731;27;20652;-74
2021/09/09 09:24:44;;;;;;;6.33;5.80;;;;;;;22.08;71.10;100053.69;5131084;27;20221;-74
2021/09/09 09:27:15;;;;;;;6.10;5.60;;;;;;;22.17;69.25;100051.28;5131365;28;20169;-74
2021/09/09 09:29:57;;;;;;;5.40;4.97;;;;;;;22.30;69.89;100053.66;5131354;27;20168;-74
2021/09/09 09:32:22;;;;;;;6.17;5.57;;;;;;;22.36;68.49;100050.06;5131681;27;20198;-74
2021/09/09 09:34:48;;;;;;;9.97;6.03;;;;;;;22.42;67.86;100045.69;5130994;28;20539;-74
2021/09/09 09:37:22;;;;;;;6.20;5.70;;;;;;;22.48;67.14;100044.06;5131338;28;20171;-74
2021/09/09 09:39:49;;;;;;;6.53;5.93;;;;;;;22.61;67.00;100047.22;5131302;28;20207;-74
2021/09/09 09:42:14;;;;;;;8.03;5.33;;;;;;;22.71;66.50;100040.81;5131222;28;20205;-74
2021/09/09 09:44:41;;;;;;;5.37;4.90;;;;;;;22.77;66.29;100043.97;5112386;27;20596;-74
2021/09/09 09:47:21;;;;;;;6.17;5.67;;;;;;;22.78;65.71;100042.78;5130901;27;20631;-74
2021/09/09 09:49:54;;;;;;;5.40;5.00;;;;;;;22.80;65.66;100043.16;5131271;28;20659;-74
2021/09/09 09:52:28;;;;;;;5.37;4.97;;;;;;;22.83;65.79;100042.38;5131654;28;20196;-74
2021/09/09 09:54:54;;;;;;;5.50;5.10;;;;;;;23.01;64.97;100031.97;5137783;27;20651;-74
2021/09/09 09:57:21;;;;;;;5.13;4.73;;;;;;;23.21;64.75;100031.44;5114740;28;20552;-74
2021/09/09 09:59:47;;;;;;;6.30;5.80;;;;;;;23.29;64.99;100031.00;5131507;28;20176;-74
2021/09/09 10:02:13;;;;;;;4.57;4.27;;;;;;;23.45;64.92;100033.28;5131201;28;20175;-73
2021/09/09 10:04:43;;;;;;;6.17;5.57;;;;;;;23.52;64.64;100029.66;5130609;28;20558;-74
2021/09/09 10:07:10;;;;;;;6.33;5.90;;;;;;;23.61;65.13;100024.44;5130759;28;20532;-74
2021/09/09 10:09:36;;;;;;;5.63;4.73;;;;;;;23.64;62.56;100016.03;5130889;28;20251;-73
2021/09/09 10:12:01;;;;;;;6.00;5.50;;;;;;;23.78;62.09;100017.91;5130981;28;20209;-73
2021/09/09 10:14:27;;;;;;;5.90;5.40;;;;;;;23.82;63.56;100020.69;5130791;27;20178;-74
2021/09/09 10:16:57;;;;;;;5.43;4.80;;;;;;;23.76;62.11;100022.34;5130845;27;20177;-74
2021/09/09 10:19:25;;;;;;;5.77;5.13;;;;;;;23.78;61.68;100025.50;5130903;27;20683;-74
2021/09/09 10:22:01;;;;;;;5.97;5.47;;;;;;;23.91;63.16;100021.78;5130683;27;20387;-74
2021/09/09 10:24:33;;;;;;;5.40;5.00;;;;;;;23.95;62.39;100018.97;5130700;27;20168;-74
2021/09/09 10:27:25;;;;;;;5.43;5.03;;;;;;;24.01;61.46;100018.13;5130839;28;20459;-74
2021/09/09 10:29:53;;;;;;;6.03;5.43;;;;;;;23.98;63.64;100020.94;5130865;28;20276;-74
2021/09/09 10:32:34;;;;;;;6.00;5.50;;;;;;;24.15;64.21;100008.78;5132339;27;20221;-74
2021/09/09 10:35:18;;;;;;;5.80;5.40;;;;;;;24.37;64.12;100008.59;5134398;27;20685;-74
2021/09/09 10:37:48;;;;;;;5.40;5.00;;;;;;;24.50;61.65;100018.03;5115918;27;20184;-73
2021/09/09 10:40:33;;;;;;;5.87;5.37;;;;;;;24.54;61.62;100016.00;5134421;27;20173;-74
2021/09/09 10:43:00;;;;;;;5.70;5.20;;;;;;;24.62;62.80;100006.31;5115906;27;20180;-74
2021/09/09 10:45:46;;;;;;;6.20;5.67;;;;;;;24.74;63.06;100005.00;5134002;27;20214;-74
2021/09/09 10:48:14;;;;;;;5.70;5.10;;;;;;;24.78;64.03;100006.53;5133360;27;20196;-74
2021/09/09 10:50:41;;;;;;;5.30;4.90;;;;;;;24.90;62.37;100011.56;5134063;27;20565;-73
2021/09/09 10:53:08;;;;;;;5.53;5.13;;;;;;;25.04;63.81;100005.00;5134009;27;20219;-74
2021/09/09 10:55:36;;;;;;;5.90;5.30;;;;;;;25.15;59.75;100008.44;5133500;27;20276;-74
2021/09/09 10:58:20;;;;;;;5.80;5.30;;;;;;;25.19;61.22;100033.56;5134060;27;20168;-74
2021/09/09 11:01:05;;;;;;;5.13;4.73;;;;;;;25.23;61.95;100006.34;5133910;27;20411;-74
2021/09/09 11:03:47;;;;;;;5.80;5.37;;;;;;;25.34;61.01;100004.19;5134293;27;20191;-74
2021/09/09 11:06:15;;;;;;;5.77;5.30;;;;;;;25.42;59.57;99999.25;5133875;27;20599;-74
2021/09/09 11:08:43;;;;;;;5.30;4.83;;;;;;;25.47;58.67;100002.38;5133813;27;20172;-74